Time,TemperatureF,DewpointF,PressureIn,WindDirection,WindDirectionDegrees,WindSpeedMPH,WindSpeedGustMPH,Humidity,HourlyPrecipIn,Conditions,Clouds,dailyrainin,SolarRadiationWatts/m^2,SoftwareType,DateUTC
2013-06-30 00:53:00,74.0,34.0,30.22,North,351,12.0,16.0,23,-99.99,,,-99.99,0.000000,,2013-06-30 07:53:00,
2013-06-30 01:02:00,74.0,35.0,30.22,NNW,347,12.0,17.0,24,-99.99,,,-99.99,0.000000,,2013-06-30 08:02:00,
2013-06-30 01:11:00,74.0,36.0,30.22,North,352,10.0,15.0,25,-99.99,,,-99.99,0.000000,,2013-06-30 08:11:00,
2013-06-30 01:22:00,74.0,36.0,30.22,North,352,10.0,15.0,25,-99.99,,,-99.99,0.000000,,2013-06-30 08:22:00,
2013-06-30 01:33:00,74.0,36.0,30.22,North,351,12.0,17.0,25,-99.99,,,-99.99,0.000000,,2013-06-30 08:33:00,
2013-06-30 01:42:00,74.0,36.0,30.22,North,357,10.0,15.0,26,-99.99,,,-99.99,0.000000,,2013-06-30 08:42:00,
2013-06-30 01:53:00,73.0,37.0,30.22,North,4,7.0,9.0,27,-99.99,,,-99.99,0.000000,,2013-06-30 08:53:00,
2013-06-30 02:00:00,70.0,36.0,30.22,West,270,4.0,8.0,29,-99.99,,,-99.99,0.000000,,2013-06-30 09:00:00,
2013-06-30 02:01:00,72.0,36.0,30.23,NNW,348,8.0,12.0,27,-99.99,,,-99.99,0.000000,,2013-06-30 09:01:00,
2013-06-30 02:12:00,72.0,37.0,30.22,North,357,5.0,9.0,27,-99.99,,,-99.99,0.000000,,2013-06-30 09:12:00,
2013-06-30 02:23:00,71.0,37.0,30.22,North,354,6.0,8.0,28,-99.99,,,-99.99,0.000000,,2013-06-30 09:23:00,
2013-06-30 02:33:00,71.0,36.0,30.22,NNW,334,5.0,7.0,28,-99.99,,,-99.99,0.000000,,2013-06-30 09:33:00,
2013-06-30 02:43:00,70.0,36.0,30.22,West,270,4.0,8.0,29,-99.99,,,-99.99,0.000000,,2013-06-30 09:43:00,
2013-06-30 02:53:00,70.0,36.0,30.22,West,270,4.0,8.0,29,-99.99,,,-99.99,0.000000,,2013-06-30 09:53:00,
2013-06-30 03:33:00,67.0,37.0,30.22,SSE,151,8.0,11.0,33,-99.99,,,-99.99,0.000000,,2013-06-30 10:33:00,
2013-06-30 03:42:00,62.0,36.0,30.22,SSE,155,9.0,12.0,38,-99.99,,,-99.99,0.000000,,2013-06-30 10:42:00,
2013-06-30 03:53:00,62.0,36.0,30.22,SSE,155,9.0,12.0,38,-99.99,,,-99.99,0.000000,,2013-06-30 10:53:00,
2013-06-30 04:02:00,60.0,35.0,30.23,SE,145,8.0,11.0,39,-99.99,,,-99.99,1.000000,,2013-06-30 11:02:00,
2013-06-30 04:11:00,60.0,34.0,30.23,SSE,148,8.0,12.0,38,-99.99,,,-99.99,0.000000,,2013-06-30 11:11:00,
2013-06-30 04:22:00,59.0,33.0,30.23,SE,142,7.0,13.0,37,-99.99,,,-99.99,0.000000,,2013-06-30 11:22:00,
2013-06-30 04:33:00,60.0,32.0,30.23,SE,146,9.0,14.0,34,-99.99,,,-99.99,0.000000,,2013-06-30 11:33:00,
2013-06-30 04:43:00,60.0,31.0,30.23,SE,146,11.0,15.0,34,-99.99,,,-99.99,0.000000,,2013-06-30 11:43:00,
2013-06-30 04:53:00,60.0,31.0,30.23,SSE,147,11.0,14.0,34,-99.99,,,-99.99,0.000000,,2013-06-30 11:53:00,
2013-06-30 05:01:00,58.0,32.0,30.23,SE,142,11.0,14.0,37,-99.99,,,-99.99,0.000000,,2013-06-30 12:01:00,
2013-06-30 05:11:00,57.0,33.0,30.23,SSE,147,10.0,13.0,40,-99.99,,,-99.99,0.000000,,2013-06-30 12:11:00,
2013-06-30 05:24:00,58.0,33.0,30.23,SSE,150,9.0,14.0,39,-99.99,,,-99.99,1.000000,,2013-06-30 12:24:00,
2013-06-30 05:33:00,57.0,33.0,30.23,SSE,156,10.0,15.0,40,-99.99,,,-99.99,1.000000,,2013-06-30 12:33:00,
2013-06-30 05:43:00,56.0,34.0,30.24,South,173,9.0,13.0,44,-99.99,,,-99.99,2.000000,,2013-06-30 12:43:00,
2013-06-30 05:52:00,57.0,34.0,30.24,SSE,166,9.0,13.0,41,-99.99,,,-99.99,6.000000,,2013-06-30 12:52:00,
2013-06-30 06:00:00,57.0,33.0,30.25,SE,146,9.0,12.0,40,-99.99,,,-99.99,44.000000,,2013-06-30 13:00:00,
2013-06-30 06:02:00,57.0,34.0,30.24,SSE,166,9.0,13.0,41,-99.99,,,-99.99,6.000000,,2013-06-30 13:02:00,
2013-06-30 06:12:00,55.0,34.0,30.25,SE,146,9.0,11.0,44,-99.99,,,-99.99,7.000000,,2013-06-30 13:12:00,
2013-06-30 06:22:00,57.0,33.0,30.25,SSE,150,8.0,13.0,41,-99.99,,,-99.99,13.000000,,2013-06-30 13:22:00,
2013-06-30 06:33:00,57.0,33.0,30.25,SSE,147,11.0,15.0,41,-99.99,,,-99.99,20.000000,,2013-06-30 13:33:00,
2013-06-30 06:43:00,57.0,33.0,30.25,SE,146,9.0,12.0,40,-99.99,,,-99.99,44.000000,,2013-06-30 13:43:00,
2013-06-30 06:53:00,57.0,33.0,30.25,SE,146,9.0,12.0,40,-99.99,,,-99.99,44.000000,,2013-06-30 13:53:00,
2013-06-30 07:10:00,64.0,35.0,30.26,SE,144,8.0,10.0,34,-99.99,,,-99.99,292.000000,,2013-06-30 14:10:00,
2013-06-30 07:22:00,61.0,34.0,30.26,SSE,152,8.0,11.0,37,-99.99,,,-99.99,190.000000,,2013-06-30 14:22:00,
2013-06-30 07:33:00,62.0,34.0,30.26,SSE,150,8.0,12.0,35,-99.99,,,-99.99,224.000000,,2013-06-30 14:33:00,
2013-06-30 07:44:00,63.0,35.0,30.26,SSE,149,8.0,11.0,34,-99.99,,,-99.99,256.000000,,2013-06-30 14:44:00,
2013-06-30 07:52:00,64.0,35.0,30.26,SE,144,8.0,10.0,34,-99.99,,,-99.99,292.000000,,2013-06-30 14:52:00,
2013-06-30 08:02:00,64.0,35.0,30.26,SE,144,8.0,10.0,34,-99.99,,,-99.99,292.000000,,2013-06-30 15:02:00,
2013-06-30 08:10:00,74.0,36.0,30.27,SSE,153,7.0,9.0,25,-99.99,,,-99.99,506.000000,,2013-06-30 15:10:00,
2013-06-30 08:34:00,71.0,36.0,30.27,SE,144,6.0,8.0,27,-99.99,,,-99.99,435.000000,,2013-06-30 15:34:00,
2013-06-30 08:44:00,72.0,36.0,30.27,SSE,150,6.0,9.0,26,-99.99,,,-99.99,472.000000,,2013-06-30 15:44:00,
2013-06-30 08:53:00,72.0,36.0,30.27,SSE,150,6.0,9.0,26,-99.99,,,-99.99,472.000000,,2013-06-30 15:53:00,
2013-06-30 09:01:00,74.0,36.0,30.27,SSE,153,7.0,9.0,25,-99.99,,,-99.99,506.000000,,2013-06-30 16:01:00,
2013-06-30 09:34:00,78.0,36.0,30.26,NNW,338,4.0,7.0,22,-99.99,,,-99.99,635.000000,,2013-06-30 16:34:00,
2013-06-30 09:44:00,79.0,35.0,30.26,NNW,332,5.0,8.0,21,-99.99,,,-99.99,670.000000,,2013-06-30 16:44:00,
2013-06-30 09:53:00,79.0,35.0,30.26,NNW,332,5.0,8.0,21,-99.99,,,-99.99,670.000000,,2013-06-30 16:53:00,
2013-06-30 10:01:00,79.0,36.0,30.26,North,349,6.0,10.0,21,-99.99,,,-99.99,701.000000,,2013-06-30 17:01:00,
2013-06-30 10:11:00,80.0,35.0,30.26,NNW,337,7.0,11.0,20,-99.99,,,-99.99,733.000000,,2013-06-30 17:11:00,
2013-06-30 10:23:00,81.0,37.0,30.25,NW,326,9.0,12.0,20,-99.99,,,-99.99,788.000000,,2013-06-30 17:23:00,
2013-06-30 10:33:00,81.0,37.0,30.25,NW,326,9.0,12.0,20,-99.99,,,-99.99,788.000000,,2013-06-30 17:33:00,
2013-06-30 10:43:00,83.0,35.0,30.25,NW,322,9.0,13.0,18,-99.99,,,-99.99,839.000000,,2013-06-30 17:43:00,
2013-06-30 10:52:00,83.0,35.0,30.25,NW,322,9.0,13.0,18,-99.99,,,-99.99,839.000000,,2013-06-30 17:52:00,
2013-06-30 11:01:00,85.0,36.0,30.24,NNW,332,7.0,13.0,17,-99.99,,,-99.99,914.000000,,2013-06-30 18:01:00,
2013-06-30 11:12:00,85.0,36.0,30.24,NNW,332,7.0,13.0,17,-99.99,,,-99.99,914.000000,,2013-06-30 18:12:00,
2013-06-30 11:22:00,87.0,34.0,30.24,NNW,327,8.0,12.0,15,-99.99,,,-99.99,947.000000,,2013-06-30 18:22:00,
2013-06-30 11:34:00,88.0,34.0,30.24,NNW,327,6.0,12.0,15,-99.99,,,-99.99,954.000000,,2013-06-30 18:34:00,
2013-06-30 11:43:00,88.0,33.0,30.23,NNW,334,6.0,14.0,14,-99.99,,,-99.99,975.000000,,2013-06-30 18:43:00,
2013-06-30 11:53:00,88.0,33.0,30.23,NNW,334,6.0,14.0,14,-99.99,,,-99.99,975.000000,,2013-06-30 18:53:00,
2013-06-30 12:01:00,90.0,34.0,30.23,North,0,5.0,9.0,14,-99.99,,,-99.99,1007.000000,,2013-06-30 19:01:00,
2013-06-30 12:11:00,90.0,34.0,30.23,North,0,5.0,9.0,14,-99.99,,,-99.99,1007.000000,,2013-06-30 19:11:00,
2013-06-30 12:33:00,91.0,33.0,30.22,NW,321,5.0,10.0,13,-99.99,,,-99.99,1042.000000,,2013-06-30 19:33:00,
2013-06-30 12:53:00,92.0,34.0,30.21,North,351,7.0,15.0,13,-99.99,,,-99.99,1080.000000,,2013-06-30 19:53:00,
2013-06-30 13:01:00,92.0,32.0,30.21,NNE,27,4.0,8.0,12,-99.99,,,-99.99,1096.000000,,2013-06-30 20:01:00,
2013-06-30 13:11:00,94.0,31.0,30.20,NNW,344,8.0,14.0,11,-99.99,,,-99.99,1126.000000,,2013-06-30 20:11:00,
2013-06-30 13:22:00,94.0,29.0,30.19,NE,43,7.0,12.0,10,-99.99,,,-99.99,1146.000000,,2013-06-30 20:22:00,
2013-06-30 13:34:00,94.0,29.0,30.19,NE,43,7.0,12.0,10,-99.99,,,-99.99,1146.000000,,2013-06-30 20:34:00,
2013-06-30 13:42:00,96.0,30.0,30.18,NNE,19,2.0,8.0,10,-99.99,,,-99.99,1182.000000,,2013-06-30 20:42:00,
2013-06-30 13:52:00,96.0,30.0,30.18,NNE,19,2.0,8.0,10,-99.99,,,-99.99,1182.000000,,2013-06-30 20:52:00,
2013-06-30 14:01:00,96.0,30.0,30.17,ESE,110,5.0,17.0,10,-99.99,,,-99.99,1072.000000,,2013-06-30 21:01:00,
2013-06-30 14:11:00,96.0,31.0,30.17,SE,141,7.0,14.0,10,-99.99,,,-99.99,1030.000000,,2013-06-30 21:11:00,
2013-06-30 14:34:00,95.0,30.0,30.18,SSW,196,14.0,24.0,10,-99.99,,,-99.99,198.000000,,2013-06-30 21:34:00,
2013-06-30 14:42:00,95.0,30.0,30.18,SSW,196,14.0,24.0,10,-99.99,,,-99.99,198.000000,,2013-06-30 21:42:00,
2013-06-30 14:53:00,93.0,31.0,30.17,SSW,196,21.0,33.0,11,-99.99,,,-99.99,132.000000,,2013-06-30 21:53:00,
2013-06-30 15:01:00,91.0,31.0,30.19,SSW,212,16.0,24.0,12,-99.99,,,-99.99,82.000000,,2013-06-30 22:01:00,
2013-06-30 15:11:00,88.0,33.0,30.21,SSW,204,19.0,27.0,14,-99.99,,,-99.99,81.000000,,2013-06-30 22:11:00,
2013-06-30 15:34:00,87.0,32.0,30.23,SW,214,24.0,41.0,14,-99.99,,,-99.99,222.000000,,2013-06-30 22:34:00,
2013-06-30 15:52:00,87.0,32.0,30.22,SSE,159,11.0,16.0,14,-99.99,,,-99.99,150.000000,,2013-06-30 22:52:00,
2013-06-30 16:01:00,88.0,31.0,30.20,East,81,10.0,18.0,13,-99.99,,,-99.99,172.000000,,2013-06-30 23:01:00,
2013-06-30 16:11:00,89.0,30.0,30.18,ESE,115,10.0,21.0,12,-99.99,,,-99.99,222.000000,,2013-06-30 23:11:00,
2013-06-30 16:22:00,89.0,30.0,30.18,ESE,115,10.0,21.0,12,-99.99,,,-99.99,222.000000,,2013-06-30 23:22:00,
2013-06-30 16:30:00,91.0,29.0,30.16,SE,134,4.0,8.0,11,-99.99,,,-99.99,333.000000,,2013-06-30 23:30:00,
2013-06-30 16:33:00,90.0,29.0,30.17,East,93,8.0,13.0,11,-99.99,,,-99.99,247.000000,,2013-06-30 23:33:00,
2013-06-30 16:43:00,90.0,29.0,30.16,East,94,7.0,15.0,11,-99.99,,,-99.99,230.000000,,2013-06-30 23:43:00,
2013-06-30 16:53:00,90.0,29.0,30.16,East,94,7.0,15.0,11,-99.99,,,-99.99,230.000000,,2013-06-30 23:53:00,
2013-06-30 17:01:00,90.0,29.0,30.16,SE,130,6.0,11.0,11,-99.99,,,-99.99,230.000000,,2013-07-01 00:01:00,
2013-06-30 17:11:00,91.0,29.0,30.16,SE,134,4.0,8.0,11,-99.99,,,-99.99,333.000000,,2013-07-01 00:11:00,
2013-06-30 17:22:00,91.0,29.0,30.16,SE,134,4.0,8.0,11,-99.99,,,-99.99,333.000000,,2013-07-01 00:22:00,
2013-06-30 17:52:00,92.0,30.0,30.15,East,94,6.0,10.0,11,-99.99,,,-99.99,359.000000,,2013-07-01 00:52:00,
2013-06-30 18:01:00,92.0,30.0,30.15,ENE,65,5.0,11.0,11,-99.99,,,-99.99,426.000000,,2013-07-01 01:01:00,
2013-06-30 18:11:00,93.0,28.0,30.15,ENE,68,4.0,10.0,10,-99.99,,,-99.99,471.000000,,2013-07-01 01:11:00,
2013-06-30 18:22:00,93.0,28.0,30.15,ESE,120,3.0,7.0,10,-99.99,,,-99.99,161.000000,,2013-07-01 01:22:00,
2013-06-30 18:33:00,92.0,30.0,30.15,SSW,196,4.0,7.0,11,-99.99,,,-99.99,134.000000,,2013-07-01 01:33:00,
2013-06-30 18:42:00,92.0,30.0,30.15,South,185,5.0,8.0,11,-99.99,,,-99.99,269.000000,,2013-07-01 01:42:00,
2013-06-30 18:52:00,93.0,31.0,30.16,SW,228,8.0,13.0,11,-99.99,,,-99.99,160.000000,,2013-07-01 01:52:00,
2013-06-30 19:02:00,92.0,30.0,30.16,WSW,253,13.0,19.0,11,-99.99,,,-99.99,156.000000,,2013-07-01 02:02:00,
2013-06-30 19:11:00,92.0,32.0,30.16,WNW,288,16.0,21.0,12,-99.99,,,-99.99,133.000000,,2013-07-01 02:11:00,
2013-06-30 19:22:00,91.0,31.0,30.16,WNW,282,12.0,20.0,12,-99.99,,,-99.99,111.000000,,2013-07-01 02:22:00,
2013-06-30 19:33:00,91.0,31.0,30.16,WNW,282,12.0,20.0,12,-99.99,,,-99.99,111.000000,,2013-07-01 02:33:00,
2013-06-30 19:43:00,89.0,32.0,30.16,WNW,291,12.0,17.0,13,-99.99,,,-99.99,57.000000,,2013-07-01 02:43:00,
2013-06-30 19:53:00,89.0,32.0,30.16,WNW,291,12.0,17.0,13,-99.99,,,-99.99,57.000000,,2013-07-01 02:53:00,
2013-06-30 20:01:00,88.0,31.0,30.17,West,279,11.0,14.0,13,-99.99,,,-99.99,52.000000,,2013-07-01 03:01:00,
2013-06-30 20:11:00,87.0,32.0,30.17,NW,306,6.0,8.0,14,-99.99,,,-99.99,45.000000,,2013-07-01 03:11:00,
2013-06-30 20:23:00,87.0,32.0,30.17,NW,306,6.0,8.0,14,-99.99,,,-99.99,45.000000,,2013-07-01 03:23:00,
2013-06-30 20:33:00,86.0,32.0,30.17,WNW,299,5.0,9.0,14,-99.99,,,-99.99,36.000000,,2013-07-01 03:33:00,
2013-06-30 20:43:00,85.0,30.0,30.18,West,260,6.0,8.0,14,-99.99,,,-99.99,16.000000,,2013-07-01 03:43:00,
2013-06-30 20:52:00,85.0,30.0,30.18,West,260,6.0,8.0,14,-99.99,,,-99.99,16.000000,,2013-07-01 03:52:00,
2013-06-30 21:01:00,85.0,30.0,30.18,WSW,254,6.0,8.0,14,-99.99,,,-99.99,7.000000,,2013-07-01 04:01:00,
2013-06-30 21:10:00,80.0,33.0,30.19,ENE,75,5.0,6.0,18,-99.99,,,-99.99,0.000000,,2013-07-01 04:10:00,
2013-06-30 21:11:00,84.0,30.0,30.18,WSW,252,6.0,8.0,14,-99.99,,,-99.99,1.000000,,2013-07-01 04:11:00,
2013-06-30 21:22:00,84.0,31.0,30.18,West,264,1.0,4.0,15,-99.99,,,-99.99,0.000000,,2013-07-01 04:22:00,
2013-06-30 21:32:00,84.0,31.0,30.18,NNE,23,1.0,5.0,15,-99.99,,,-99.99,0.000000,,2013-07-01 04:32:00,
2013-06-30 21:42:00,83.0,32.0,30.19,NE,42,4.0,6.0,16,-99.99,,,-99.99,0.000000,,2013-07-01 04:42:00,
2013-06-30 21:52:00,80.0,33.0,30.19,ENE,75,5.0,6.0,18,-99.99,,,-99.99,0.000000,,2013-07-01 04:52:00,
2013-06-30 22:01:00,80.0,33.0,30.19,ENE,75,5.0,6.0,18,-99.99,,,-99.99,0.000000,,2013-07-01 05:01:00,
2013-06-30 22:52:00,77.0,34.0,30.21,SE,139,8.0,11.0,21,-99.99,,,-99.99,0.000000,,2013-07-01 05:52:00,
2013-06-30 23:02:00,74.0,36.0,30.21,SSE,160,8.0,12.0,25,-99.99,,,-99.99,0.000000,,2013-07-01 06:02:00,
2013-06-30 23:12:00,72.0,35.0,30.22,South,180,6.0,8.0,26,-99.99,,,-99.99,0.000000,,2013-07-01 06:12:00,
2013-06-30 23:24:00,73.0,34.0,30.22,SSE,149,7.0,8.0,24,-99.99,,,-99.99,0.000000,,2013-07-01 06:24:00,
2013-06-30 23:33:00,73.0,35.0,30.22,SE,141,8.0,10.0,25,-99.99,,,-99.99,0.000000,,2013-07-01 06:33:00,
2013-06-30 23:40:00,72.0,34.0,30.23,SSE,155,8.0,10.0,25,-99.99,,,-99.99,0.000000,,2013-07-01 06:40:00,
2013-06-30 23:53:00,73.0,35.0,30.23,SSE,159,7.0,10.0,25,-99.99,,,-99.99,0.000000,,2013-07-01 06:53:00,